createdAt,value
2018-02-09T00:01:30.060Z,74.39
2018-02-09T00:03:56.452Z,74.76
2018-02-09T00:06:22.877Z,73.70
2018-02-09T00:08:49.368Z,73.35
2018-02-09T00:11:16.127Z,73.25
2018-02-09T00:13:42.645Z,73.58
2018-02-09T00:16:09.037Z,74.45
2018-02-09T00:18:35.744Z,74.45
2018-02-09T00:21:02.133Z,73.15
2018-02-09T00:23:28.600Z,73.23
2018-02-09T00:25:55.242Z,74.00
2018-02-09T00:28:21.775Z,73.51
2018-02-09T00:30:48.209Z,73.67
2018-02-09T00:33:14.730Z,74.33
2018-02-09T00:35:41.419Z,73.86
2018-02-09T00:38:07.917Z,74.69
2018-02-09T00:40:34.556Z,74.24
2018-02-09T00:43:01.194Z,73.45
2018-02-09T00:45:27.832Z,74.75
2018-02-09T00:47:54.264Z,74.93
2018-02-09T00:50:20.680Z,75.20
2018-02-09T00:52:47.165Z,74.13
2018-02-09T00:55:13.615Z,73.15
2018-02-09T00:57:40.101Z,73.30
2018-02-09T01:00:06.721Z,73.51
2018-02-09T01:02:33.361Z,74.01
2018-02-09T01:04:59.912Z,74.20
2018-02-09T01:07:26.340Z,73.90
2018-02-09T01:09:52.865Z,73.61
2018-02-09T01:12:19.507Z,73.41
2018-02-09T01:14:45.917Z,72.99
2018-02-09T01:17:12.477Z,73.14
2018-02-09T01:19:38.853Z,73.68
2018-02-09T01:22:05.355Z,73.63
2018-02-09T01:24:32.049Z,72.96
2018-02-09T01:26:58.450Z,73.15
2018-02-09T01:29:24.962Z,74.42
2018-02-09T01:31:51.502Z,74.39
2018-02-09T01:34:17.934Z,73.70
2018-02-09T01:36:44.353Z,74.50
2018-02-09T01:39:10.900Z,72.90
2018-02-09T01:41:37.436Z,73.82
2018-02-09T01:44:03.972Z,73.16
2018-02-09T01:46:30.388Z,73.34
2018-02-09T01:48:57.043Z,74.09
2018-02-09T01:51:23.886Z,73.36
2018-02-09T01:53:50.306Z,73.68
2018-02-09T01:56:16.753Z,73.32
2018-02-09T01:58:43.392Z,73.20
2018-02-09T02:01:09.909Z,73.35
2018-02-09T02:03:36.462Z,72.60
2018-02-09T02:06:02.965Z,72.45
2018-02-09T02:08:29.413Z,73.82
2018-02-09T02:10:55.969Z,73.44
2018-02-09T02:13:22.720Z,73.21
2018-02-09T02:15:49.184Z,72.81
2018-02-09T02:18:15.797Z,72.45
2018-02-09T02:20:42.296Z,73.08
2018-02-09T02:23:08.968Z,74.25
2018-02-09T02:25:35.370Z,75.10
2018-02-09T02:28:01.704Z,74.12
2018-02-09T02:30:28.102Z,74.50
2018-02-09T02:32:54.456Z,73.87
2018-02-09T02:35:21.020Z,73.03
2018-02-09T02:37:47.401Z,72.23
2018-02-09T02:40:13.757Z,73.05
2018-02-09T02:42:40.090Z,73.42
2018-02-09T02:45:06.477Z,72.50
2018-02-09T02:47:32.819Z,72.74
2018-02-09T02:49:59.180Z,72.28
2018-02-09T02:52:25.576Z,73.56
2018-02-09T02:54:51.908Z,73.30
2018-02-09T02:57:18.241Z,72.65
2018-02-09T02:59:44.664Z,73.18
2018-02-09T03:02:11.026Z,73.78
2018-02-09T03:04:37.372Z,74.61
2018-02-09T03:07:03.745Z,72.88
2018-02-09T03:09:30.085Z,72.32
2018-02-09T03:11:56.465Z,71.94
2018-02-09T03:14:22.842Z,73.13
2018-02-09T03:16:49.208Z,73.01
2018-02-09T03:19:15.664Z,73.40
2018-02-09T03:21:42.044Z,75.74
2018-02-09T03:24:08.372Z,72.93
2018-02-09T03:26:34.705Z,72.62
2018-02-09T03:29:01.115Z,72.01
2018-02-09T03:31:27.432Z,71.49
2018-02-09T03:33:53.776Z,71.92
2018-02-09T03:36:20.124Z,72.15
2018-02-09T03:38:46.468Z,72.16
2018-02-09T03:41:12.805Z,72.25
2018-02-09T03:43:39.362Z,72.02
2018-02-09T03:46:05.733Z,72.14
2018-02-09T03:48:32.065Z,74.10
2018-02-09T03:50:58.420Z,73.20
2018-02-09T03:53:24.812Z,71.97
2018-02-09T03:55:51.141Z,72.90
2018-02-09T03:58:17.476Z,71.86
2018-02-09T04:00:44.032Z,71.82
2018-02-09T04:03:10.348Z,71.78
2018-02-09T04:05:36.692Z,71.38
2018-02-09T04:08:03.033Z,71.96
2018-02-09T04:10:29.356Z,72.89
2018-02-09T04:12:55.772Z,73.21
2018-02-09T04:15:22.177Z,71.51
2018-02-09T04:17:48.552Z,72.15
2018-02-09T04:20:15.089Z,72.31
2018-02-09T04:22:41.405Z,71.60
2018-02-09T04:25:07.756Z,73.01
2018-02-09T04:27:34.137Z,73.44
2018-02-09T04:30:00.473Z,72.67
2018-02-09T04:32:26.820Z,73.35
2018-02-09T04:34:53.328Z,73.34
2018-02-09T04:37:19.683Z,72.06
2018-02-09T04:39:46.017Z,72.93
2018-02-09T04:42:12.380Z,72.34
2018-02-09T04:44:38.688Z,72.67
2018-02-09T04:47:05.012Z,74.32
2018-02-09T04:49:31.396Z,74.44
2018-02-09T04:51:57.730Z,74.47
2018-02-09T04:54:24.072Z,74.15
2018-02-09T04:56:50.720Z,74.22
2018-02-09T04:59:17.068Z,73.92
2018-02-09T05:01:43.404Z,73.84
2018-02-09T05:04:09.804Z,73.36
2018-02-09T05:06:36.141Z,73.30
2018-02-09T05:09:02.569Z,73.32
2018-02-09T05:11:28.975Z,73.33
2018-02-09T05:13:55.292Z,73.68
2018-02-09T05:16:21.619Z,72.86
2018-02-09T05:18:48.004Z,74.96
2018-02-09T05:21:14.333Z,75.59
2018-02-09T05:23:40.685Z,74.90
2018-02-09T05:26:07.374Z,74.42
2018-02-09T05:28:33.736Z,74.35
2018-02-09T05:31:00.117Z,74.12
2018-02-09T05:33:26.485Z,75.95
2018-02-09T05:35:52.848Z,75.24
2018-02-09T05:38:19.188Z,74.56
2018-02-09T05:40:45.588Z,74.36
2018-02-09T05:43:11.926Z,74.19
2018-02-09T05:45:38.252Z,73.52
2018-02-09T05:48:04.669Z,73.86
2018-02-09T05:50:31.025Z,74.01
2018-02-09T05:52:57.383Z,72.77
2018-02-09T05:55:23.734Z,72.58
2018-02-09T05:57:50.110Z,73.83
2018-02-09T06:00:16.461Z,73.44
2018-02-09T06:02:42.808Z,73.14
2018-02-09T06:05:09.237Z,73.00
2018-02-09T06:07:35.568Z,72.75
2018-02-09T06:10:02.073Z,73.09
2018-02-09T06:12:28.820Z,74.21
2018-02-09T06:14:55.349Z,73.86
2018-02-09T06:17:21.942Z,73.56
2018-02-09T06:19:48.331Z,73.80
2018-02-09T06:22:14.690Z,74.19
2018-02-09T06:24:41.376Z,73.99
2018-02-09T06:27:08.008Z,74.16
2018-02-09T06:29:34.356Z,72.80
2018-02-09T06:32:00.762Z,73.74
2018-02-09T06:34:27.117Z,74.34
2018-02-09T06:36:53.473Z,73.05
2018-02-09T06:39:19.916Z,74.19
2018-02-09T06:41:46.276Z,73.86
2018-02-09T06:44:12.657Z,74.01
2018-02-09T06:46:39.173Z,74.63
2018-02-09T06:49:05.573Z,73.46
2018-02-09T06:51:32.191Z,72.93
2018-02-09T06:53:58.560Z,73.74
2018-02-09T06:56:24.896Z,73.81
2018-02-09T06:58:51.225Z,73.68
2018-02-09T07:01:17.632Z,74.03
2018-02-09T07:03:43.976Z,73.62
2018-02-09T07:06:10.298Z,73.62
2018-02-09T07:08:36.649Z,74.78
2018-02-09T07:11:02.984Z,73.90
2018-02-09T07:13:29.369Z,72.77
2018-02-09T07:15:55.745Z,72.62
2018-02-09T07:18:22.109Z,72.45
2018-02-09T07:20:48.624Z,72.39
2018-02-09T07:23:14.981Z,72.35
2018-02-09T07:25:41.334Z,72.31
2018-02-09T07:28:08.157Z,72.86
2018-02-09T07:30:34.504Z,72.53
2018-02-09T07:33:00.868Z,72.51
2018-02-09T07:35:27.249Z,72.48
2018-02-09T07:37:53.600Z,72.55
2018-02-09T07:40:19.955Z,72.85
2018-02-09T07:42:46.327Z,72.44
2018-02-09T07:45:12.673Z,72.28
2018-02-09T07:47:39.065Z,72.15
2018-02-09T07:50:05.417Z,71.97
2018-02-09T07:52:31.831Z,71.53
2018-02-09T07:54:58.196Z,71.43
2018-02-09T07:57:24.600Z,71.17
2018-02-09T07:59:50.945Z,70.60
2018-02-09T08:02:17.344Z,70.35
2018-02-09T08:04:43.705Z,70.09
2018-02-09T08:07:10.069Z,69.59
2018-02-09T08:09:36.603Z,68.37
2018-02-09T08:12:02.961Z,66.48
2018-02-09T08:14:29.312Z,64.78
2018-02-09T08:16:55.693Z,64.41
2018-02-09T08:19:22.072Z,61.55
2018-02-09T08:21:48.708Z,62.78
2018-02-09T08:24:15.113Z,61.09
2018-02-09T08:26:41.448Z,60.63
2018-02-09T08:29:07.776Z,59.67
2018-02-09T08:31:34.172Z,60.38
2018-02-09T08:34:00.501Z,60.96
2018-02-09T08:36:26.880Z,60.54
2018-02-09T08:38:53.506Z,59.77
2018-02-09T08:41:19.865Z,60.41
2018-02-09T08:43:46.220Z,59.67
2018-02-09T08:46:12.617Z,61.33
2018-02-09T08:48:39.037Z,59.00
2018-02-09T08:51:05.381Z,57.62
2018-02-09T08:53:31.925Z,59.14
2018-02-09T08:55:58.448Z,59.44
2018-02-09T08:58:25.018Z,60.03
2018-02-09T09:00:51.857Z,57.42
2018-02-09T09:03:18.820Z,57.05
2018-02-09T09:05:45.542Z,58.16
2018-02-09T09:08:12.240Z,58.75
2018-02-09T09:10:39.981Z,57.21
2018-02-09T09:13:06.840Z,56.05
2018-02-09T09:15:33.649Z,53.37
2018-02-09T09:18:00.366Z,54.70
2018-02-09T09:20:26.915Z,57.08
2018-02-09T09:22:53.672Z,57.02
2018-02-09T09:25:20.300Z,54.74
2018-02-09T09:27:47.007Z,56.37
2018-02-09T09:30:13.608Z,55.26
2018-02-09T09:32:40.174Z,55.31
2018-02-09T09:35:06.680Z,54.36
2018-02-09T09:37:35.830Z,53.63
2018-02-09T09:40:02.634Z,54.43
2018-02-09T09:42:30.357Z,56.57
2018-02-09T09:44:57.078Z,56.22
2018-02-09T09:47:23.632Z,55.40
2018-02-09T09:49:52.393Z,54.18
2018-02-09T09:52:20.714Z,54.94
2018-02-09T09:54:47.573Z,55.13
2018-02-09T09:57:14.262Z,54.15
2018-02-09T09:59:41.159Z,55.58
2018-02-09T10:02:07.812Z,53.18
2018-02-09T10:04:34.663Z,55.09
2018-02-09T10:07:01.289Z,55.98
2018-02-09T10:09:28.112Z,53.50
2018-02-09T10:11:54.827Z,52.26
2018-02-09T10:14:22.177Z,52.40
2018-02-09T10:16:48.784Z,51.46
2018-02-09T10:19:15.434Z,51.61
2018-02-09T10:21:42.847Z,53.10
2018-02-09T10:24:09.782Z,53.26
2018-02-09T10:26:36.303Z,53.17
2018-02-09T10:29:03.008Z,55.92
2018-02-09T10:31:30.062Z,54.69
2018-02-09T10:34:00.551Z,55.38
2018-02-09T10:36:27.442Z,52.86
2018-02-09T10:38:54.155Z,50.11
2018-02-09T10:41:20.841Z,53.60
2018-02-09T10:43:47.686Z,49.53
2018-02-09T10:46:14.525Z,52.28
2018-02-09T10:48:41.414Z,52.39
2018-02-09T10:53:41.986Z,50.81
2018-02-09T10:56:08.638Z,51.33
2018-02-09T10:58:35.376Z,50.65
2018-02-09T11:01:02.758Z,50.90
2018-02-09T11:03:29.818Z,49.05
2018-02-09T11:05:57.044Z,49.98
2018-02-09T11:08:24.146Z,49.04
2018-02-09T11:10:51.368Z,49.46
2018-02-09T11:13:19.351Z,50.10
2018-02-09T11:15:46.249Z,49.78
2018-02-09T11:18:13.831Z,48.91
2018-02-09T11:20:41.326Z,48.26
2018-02-09T11:23:08.222Z,51.42
2018-02-09T11:25:35.184Z,51.22
2018-02-09T11:28:01.916Z,50.10
2018-02-09T11:33:02.164Z,50.72
2018-02-09T11:35:28.991Z,49.13
2018-02-09T11:37:56.122Z,50.35
2018-02-09T11:40:23.138Z,51.46
2018-02-09T11:42:50.080Z,49.62
2018-02-09T11:45:17.007Z,51.25
2018-02-09T11:47:43.692Z,50.70
2018-02-09T11:50:10.491Z,51.36
2018-02-09T11:52:37.235Z,50.34
2018-02-09T11:55:04.875Z,49.35
2018-02-09T11:57:32.351Z,50.00
2018-02-09T12:00:00.300Z,49.47
2018-02-09T12:02:27.061Z,50.64
2018-02-09T12:04:53.712Z,52.01
2018-02-09T12:07:20.311Z,52.37
2018-02-09T12:09:47.036Z,50.23
2018-02-09T12:12:14.056Z,50.54
2018-02-09T12:14:40.962Z,51.16
2018-02-09T12:17:07.596Z,50.10
2018-02-09T12:19:34.580Z,51.13
2018-02-09T12:22:01.478Z,51.21
2018-02-09T12:24:28.300Z,50.13
2018-02-09T12:26:55.162Z,51.03
2018-02-09T12:29:22.076Z,50.47
2018-02-09T12:31:48.748Z,51.47
2018-02-09T12:34:15.772Z,52.28
2018-02-09T12:36:42.435Z,49.27
2018-02-09T12:39:09.198Z,49.55
2018-02-09T12:41:35.909Z,49.90
2018-02-09T12:44:02.772Z,50.53
2018-02-09T12:46:29.771Z,50.44
2018-02-09T12:48:56.464Z,51.31
2018-02-09T12:51:23.148Z,51.55
2018-02-09T12:53:50.198Z,53.24
2018-02-09T12:56:16.885Z,52.74
2018-02-09T12:58:43.745Z,51.79
2018-02-09T13:01:10.712Z,52.33
2018-02-09T13:03:37.603Z,52.07
2018-02-09T13:06:05.876Z,52.16
2018-02-09T13:11:06.511Z,55.05
2018-02-09T13:13:33.410Z,51.51
2018-02-09T13:16:00.201Z,51.59
2018-02-09T13:18:39.334Z,49.75
2018-02-09T13:21:06.087Z,48.76
2018-02-09T13:23:45.047Z,50.41
2018-02-09T13:26:11.823Z,52.17
2018-02-09T13:28:50.991Z,49.68
2018-02-09T13:31:17.866Z,49.40
2018-02-09T13:33:44.752Z,48.99
2018-02-09T13:36:14.709Z,48.75
2018-02-09T13:38:41.871Z,50.31
2018-02-09T13:41:08.488Z,50.78
2018-02-09T13:43:35.433Z,54.19
2018-02-09T13:46:04.086Z,52.36
2018-02-09T13:48:31.233Z,51.69
2018-02-09T13:50:58.335Z,51.07
2018-02-09T13:53:26.184Z,52.36
2018-02-09T13:55:54.032Z,53.37
2018-02-09T13:58:21.143Z,53.76
2018-02-09T14:00:48.932Z,52.25
2018-02-09T14:03:15.683Z,52.98
2018-02-09T14:05:42.399Z,53.02
2018-02-09T14:08:09.007Z,51.18
2018-02-09T14:10:35.895Z,50.96
2018-02-09T14:13:02.657Z,50.30
2018-02-09T14:15:29.353Z,49.58
2018-02-09T14:17:56.241Z,51.21
2018-02-09T14:20:22.984Z,45.30
2018-02-09T14:22:53.678Z,45.06
2018-02-09T14:25:21.240Z,52.05
2018-02-09T14:27:48.385Z,50.06
2018-02-09T14:30:15.975Z,43.70
2018-02-09T14:32:42.672Z,48.42
2018-02-09T14:35:10.318Z,48.00
2018-02-09T14:37:38.013Z,42.53
2018-02-09T14:40:04.931Z,48.83
2018-02-09T14:42:31.827Z,42.91
2018-02-09T14:44:58.624Z,46.85
2018-02-09T14:47:25.254Z,45.47
2018-02-09T14:49:52.023Z,43.82
2018-02-09T14:52:18.631Z,49.11
2018-02-09T14:54:45.310Z,44.37
2018-02-09T14:57:12.164Z,47.07
2018-02-09T14:59:42.186Z,45.24
2018-02-09T15:02:09.386Z,46.28
2018-02-09T15:04:37.518Z,52.84
2018-02-09T15:07:06.041Z,45.39
2018-02-09T15:09:33.599Z,52.49
2018-02-09T15:12:01.518Z,48.29
2018-02-09T15:14:28.018Z,43.87
2018-02-09T15:16:54.665Z,43.07
2018-02-09T15:19:21.365Z,47.00
2018-02-09T15:21:47.737Z,43.29
2018-02-09T15:24:14.201Z,49.47
2018-02-09T15:26:40.612Z,49.27
2018-02-09T15:29:06.965Z,45.91
2018-02-09T15:31:33.348Z,44.08
2018-02-09T15:33:59.764Z,44.27
2018-02-09T15:36:26.256Z,45.15
2018-02-09T15:38:52.690Z,44.81
2018-02-09T15:41:19.080Z,45.16
2018-02-09T15:43:45.497Z,46.55
2018-02-09T15:46:11.870Z,47.72
2018-02-09T15:48:38.452Z,47.25
2018-02-09T15:51:04.928Z,46.10
2018-02-09T15:53:31.517Z,47.04
2018-02-09T15:55:57.974Z,46.85
2018-02-09T15:58:24.375Z,47.29
2018-02-09T16:00:50.767Z,47.86
2018-02-09T16:03:17.169Z,48.29
2018-02-09T16:05:43.672Z,47.97
2018-02-09T16:08:10.125Z,48.19
2018-02-09T16:10:37.396Z,48.00
2018-02-09T16:13:03.848Z,47.93
2018-02-09T16:15:30.213Z,48.33
2018-02-09T16:17:56.734Z,48.41
2018-02-09T16:20:23.093Z,49.06
2018-02-09T16:22:49.501Z,50.37
2018-02-09T16:25:15.922Z,50.39
2018-02-09T16:27:42.377Z,50.46
2018-02-09T16:30:08.757Z,49.34
2018-02-09T16:32:35.196Z,48.61
2018-02-09T16:35:01.620Z,48.54
2018-02-09T16:37:27.996Z,48.53
2018-02-09T16:39:54.392Z,48.69
2018-02-09T16:42:20.753Z,49.16
2018-02-09T16:44:47.182Z,49.06
2018-02-09T16:47:13.585Z,49.73
2018-02-09T16:49:40.000Z,49.88
2018-02-09T16:52:06.457Z,51.22
2018-02-09T16:54:32.885Z,49.73
2018-02-09T16:56:59.273Z,49.43
2018-02-09T16:59:25.696Z,50.19
2018-02-09T17:01:52.234Z,49.83
2018-02-09T17:04:18.628Z,49.51
2018-02-09T17:06:45.000Z,49.47
2018-02-09T17:09:11.461Z,49.42
2018-02-09T17:11:37.872Z,49.48
2018-02-09T17:14:04.261Z,49.78
2018-02-09T17:16:30.749Z,49.47
2018-02-09T17:18:57.153Z,49.82
2018-02-09T17:21:23.539Z,51.72
2018-02-09T17:23:49.932Z,50.51
2018-02-09T17:26:16.316Z,50.85
2018-02-09T17:28:42.794Z,50.90
2018-02-09T17:31:09.211Z,51.50
2018-02-09T17:33:35.655Z,51.52
2018-02-09T17:36:02.156Z,52.24
2018-02-09T17:38:28.511Z,52.18
2018-02-09T17:40:54.865Z,52.52
2018-02-09T17:43:21.351Z,52.35
2018-02-09T17:45:47.730Z,51.95
2018-02-09T17:48:14.156Z,52.93
2018-02-09T17:50:40.525Z,54.95
2018-02-09T17:53:07.004Z,53.94
2018-02-09T17:55:33.391Z,53.22
2018-02-09T17:58:00.623Z,53.29
2018-02-09T18:00:27.028Z,53.38
2018-02-09T18:02:53.420Z,55.07
2018-02-09T18:05:19.846Z,54.51
2018-02-09T18:07:46.216Z,54.93
2018-02-09T18:10:12.577Z,55.13
2018-02-09T18:12:39.057Z,54.99
2018-02-09T18:15:05.515Z,55.03
2018-02-09T18:17:31.924Z,55.21
2018-02-09T18:19:58.405Z,56.16
2018-02-09T18:22:24.752Z,55.01
2018-02-09T18:24:51.917Z,55.20
2018-02-09T18:27:18.367Z,55.55
2018-02-09T18:29:44.748Z,55.10
2018-02-09T18:32:11.120Z,55.55
2018-02-09T18:34:37.595Z,56.53
2018-02-09T18:37:03.997Z,56.52
2018-02-09T18:39:30.362Z,61.51
2018-02-09T18:41:56.724Z,63.59
2018-02-09T18:44:23.102Z,57.45
2018-02-09T18:46:49.495Z,54.62
2018-02-09T18:49:15.921Z,61.02
2018-02-09T18:51:43.243Z,63.06
2018-02-09T18:54:09.609Z,56.15
2018-02-09T18:56:35.980Z,55.44
2018-02-09T18:59:02.362Z,56.35
2018-02-09T19:01:28.771Z,62.12
2018-02-09T19:03:55.782Z,55.49
2018-02-09T19:06:22.180Z,55.84
2018-02-09T19:08:48.842Z,54.80
2018-02-09T19:11:15.306Z,55.44
2018-02-09T19:13:41.685Z,56.02
2018-02-09T19:16:08.066Z,55.37
2018-02-09T19:18:34.581Z,55.24
2018-02-09T19:21:00.989Z,58.05
2018-02-09T19:23:28.816Z,57.23
2018-02-09T19:25:55.233Z,56.16
2018-02-09T19:28:21.600Z,55.36
2018-02-09T19:30:47.998Z,56.41
2018-02-09T19:33:14.437Z,62.46
2018-02-09T19:35:40.805Z,56.43
2018-02-09T19:38:07.206Z,56.15
2018-02-09T19:40:34.329Z,56.41
2018-02-09T19:43:00.824Z,55.64
2018-02-09T19:45:27.640Z,56.24
2018-02-09T19:47:54.006Z,54.75
2018-02-09T19:50:20.378Z,56.75
2018-02-09T19:52:46.858Z,52.76
2018-02-09T19:55:13.352Z,52.59
2018-02-09T19:57:39.708Z,58.98
2018-02-09T20:00:06.118Z,55.43
2018-02-09T20:02:32.548Z,57.08
2018-02-09T20:04:58.920Z,58.01
2018-02-09T20:07:25.320Z,59.18
2018-02-09T20:09:51.684Z,52.64
2018-02-09T20:12:18.081Z,58.71
2018-02-09T20:14:44.482Z,52.81
2018-02-09T20:17:10.846Z,58.19
2018-02-09T20:19:37.265Z,54.50
2018-02-09T20:22:03.765Z,53.41
2018-02-09T20:24:30.180Z,51.95
2018-02-09T20:26:57.194Z,53.53
2018-02-09T20:29:23.582Z,55.18
2018-02-09T20:31:49.980Z,54.90
2018-02-09T20:34:16.397Z,55.52
2018-02-09T20:36:42.759Z,49.13
2018-02-09T20:39:09.113Z,49.62
2018-02-09T20:41:35.465Z,58.09
2018-02-09T20:44:01.851Z,53.33
2018-02-09T20:46:28.310Z,55.93
2018-02-09T20:48:54.726Z,55.45
2018-02-09T20:51:21.258Z,50.82
2018-02-09T20:53:47.657Z,47.78
2018-02-09T20:56:14.123Z,53.08
2018-02-09T20:58:40.493Z,48.23
2018-02-09T21:01:06.871Z,52.95
2018-02-09T21:03:33.304Z,55.05
2018-02-09T21:06:00.245Z,55.38
2018-02-09T21:08:27.316Z,58.26
2018-02-09T21:10:53.815Z,55.74
2018-02-09T21:13:20.201Z,52.53
2018-02-09T21:15:46.566Z,55.98
2018-02-09T21:18:12.959Z,59.84
2018-02-09T21:20:39.328Z,53.47
2018-02-09T21:23:05.694Z,55.89
2018-02-09T21:25:32.099Z,51.92
2018-02-09T21:27:58.456Z,58.26
2018-02-09T21:30:24.818Z,53.95
2018-02-09T21:32:51.196Z,51.94
2018-02-09T21:35:17.565Z,55.04
2018-02-09T21:37:43.965Z,51.33
2018-02-09T21:40:10.338Z,53.78
2018-02-09T21:42:36.681Z,57.16
2018-02-09T21:45:03.120Z,53.97
2018-02-09T21:47:29.493Z,60.35
2018-02-09T21:49:55.852Z,53.48
2018-02-09T21:52:22.253Z,59.21
2018-02-09T21:54:48.618Z,52.07
2018-02-09T21:57:14.961Z,54.45
2018-02-09T21:59:41.367Z,52.94
2018-02-09T22:02:07.756Z,52.70
2018-02-09T22:04:34.161Z,54.14
2018-02-09T22:07:00.617Z,52.77
2018-02-09T22:09:29.177Z,52.77
2018-02-09T22:11:56.509Z,54.05
2018-02-09T22:14:24.406Z,53.55
2018-02-09T22:16:51.648Z,55.15
2018-02-09T22:19:18.221Z,54.14
2018-02-09T22:21:45.552Z,54.63
2018-02-09T22:24:13.386Z,55.22
2018-02-09T22:26:39.744Z,54.35
2018-02-09T22:29:06.121Z,54.77
2018-02-09T22:31:32.560Z,54.61
2018-02-09T22:33:58.977Z,55.35
2018-02-09T22:36:25.347Z,64.69
2018-02-09T22:38:51.738Z,56.99
2018-02-09T22:41:18.094Z,58.59
2018-02-09T22:43:44.496Z,65.64
2018-02-09T22:46:10.848Z,63.07
2018-02-09T22:48:38.209Z,64.32
2018-02-09T22:51:07.102Z,58.49
2018-02-09T22:53:34.697Z,65.52
2018-02-09T22:56:01.739Z,59.31
2018-02-09T22:58:28.187Z,56.52
2018-02-09T23:00:54.890Z,56.59
2018-02-09T23:03:22.262Z,57.43
2018-02-09T23:05:48.835Z,59.50
2018-02-09T23:08:15.312Z,62.57
2018-02-09T23:10:41.764Z,57.87
2018-02-09T23:13:08.164Z,59.01
2018-02-09T23:15:34.608Z,58.57
2018-02-09T23:18:01.084Z,57.29
2018-02-09T23:20:27.711Z,59.30
2018-02-09T23:22:56.238Z,57.81
2018-02-09T23:25:24.333Z,58.08
2018-02-09T23:27:50.778Z,58.52
2018-02-09T23:30:21.332Z,59.58
2018-02-09T23:32:48.713Z,65.15
2018-02-09T23:35:15.067Z,59.08
2018-02-09T23:37:41.474Z,58.83
2018-02-09T23:40:07.829Z,58.95
2018-02-09T23:42:34.196Z,60.83
2018-02-09T23:45:00.746Z,60.16
2018-02-09T23:47:27.114Z,59.71
2018-02-09T23:49:55.983Z,61.72
2018-02-09T23:52:22.424Z,61.28
2018-02-09T23:54:49.339Z,60.77
2018-02-09T23:57:21.037Z,63.08
2018-02-09T23:59:49.946Z,63.18
